sensor_id;sensor_type;location;lat;lon;timestamp;P1;durP1;ratioP1;P2;durP2;ratioP2
7845;SDS011;3968;51.424;6.788;2022-12-16T00:00:10;45.03;;;25.50;;
7845;SDS011;3968;51.424;6.788;2022-12-16T00:02:37;43.13;;;25.83;;
7845;SDS011;3968;51.424;6.788;2022-12-16T00:05:03;40.37;;;25.60;;
7845;SDS011;3968;51.424;6.788;2022-12-16T00:07:29;42.70;;;25.33;;
7845;SDS011;3968;51.424;6.788;2022-12-16T00:09:55;43.97;;;25.50;;
7845;SDS011;3968;51.424;6.788;2022-12-16T00:12:21;38.53;;;23.53;;
7845;SDS011;3968;51.424;6.788;2022-12-16T00:14:47;44.17;;;26.50;;
7845;SDS011;3968;51.424;6.788;2022-12-16T00:17:13;42.73;;;25.77;;
7845;SDS011;3968;51.424;6.788;2022-12-16T00:19:39;41.43;;;24.77;;
7845;SDS011;3968;51.424;6.788;2022-12-16T00:22:05;47.10;;;25.90;;
7845;SDS011;3968;51.424;6.788;2022-12-16T00:24:31;42.67;;;25.47;;
7845;SDS011;3968;51.424;6.788;2022-12-16T00:26:57;45.87;;;25.00;;
7845;SDS011;3968;51.424;6.788;2022-12-16T00:29:23;47.17;;;25.93;;
7845;SDS011;3968;51.424;6.788;2022-12-16T00:31:49;44.23;;;25.53;;
7845;SDS011;3968;51.424;6.788;2022-12-16T00:34:16;46.37;;;26.67;;
7845;SDS011;3968;51.424;6.788;2022-12-16T00:36:42;44.53;;;26.83;;
7845;SDS011;3968;51.424;6.788;2022-12-16T00:39:08;43.23;;;26.93;;
7845;SDS011;3968;51.424;6.788;2022-12-16T00:41:35;42.63;;;27.10;;
7845;SDS011;3968;51.424;6.788;2022-12-16T00:44:01;41.10;;;24.97;;
7845;SDS011;3968;51.424;6.788;2022-12-16T00:46:27;43.10;;;25.23;;
7845;SDS011;3968;51.424;6.788;2022-12-16T00:48:53;47.63;;;26.80;;
7845;SDS011;3968;51.424;6.788;2022-12-16T00:51:19;40.17;;;24.70;;
7845;SDS011;3968;51.424;6.788;2022-12-16T00:53:46;43.20;;;25.87;;
7845;SDS011;3968;51.424;6.788;2022-12-16T00:56:12;45.70;;;26.07;;
7845;SDS011;3968;51.424;6.788;2022-12-16T00:58:38;43.50;;;26.40;;
7845;SDS011;3968;51.424;6.788;2022-12-16T01:01:05;47.63;;;26.67;;
7845;SDS011;3968;51.424;6.788;2022-12-16T01:03:31;45.07;;;27.07;;
7845;SDS011;3968;51.424;6.788;2022-12-16T01:05:57;45.93;;;27.33;;
7845;SDS011;3968;51.424;6.788;2022-12-16T01:08:23;41.50;;;25.10;;
7845;SDS011;3968;51.424;6.788;2022-12-16T01:10:53;45.67;;;25.77;;
7845;SDS011;3968;51.424;6.788;2022-12-16T01:13:19;44.30;;;25.53;;
7845;SDS011;3968;51.424;6.788;2022-12-16T01:15:46;41.37;;;24.97;;
7845;SDS011;3968;51.424;6.788;2022-12-16T01:18:12;42.87;;;24.87;;
7845;SDS011;3968;51.424;6.788;2022-12-16T01:20:38;43.93;;;24.40;;
7845;SDS011;3968;51.424;6.788;2022-12-16T01:23:04;45.97;;;25.23;;
7845;SDS011;3968;51.424;6.788;2022-12-16T01:25:30;44.20;;;25.10;;
7845;SDS011;3968;51.424;6.788;2022-12-16T01:27:56;37.23;;;23.47;;
7845;SDS011;3968;51.424;6.788;2022-12-16T01:30:22;42.53;;;25.53;;
7845;SDS011;3968;51.424;6.788;2022-12-16T01:32:49;42.23;;;24.90;;
7845;SDS011;3968;51.424;6.788;2022-12-16T01:35:15;40.40;;;24.03;;
7845;SDS011;3968;51.424;6.788;2022-12-16T01:37:41;46.03;;;24.90;;
7845;SDS011;3968;51.424;6.788;2022-12-16T01:40:08;47.93;;;25.90;;
7845;SDS011;3968;51.424;6.788;2022-12-16T01:42:42;42.93;;;25.37;;
7845;SDS011;3968;51.424;6.788;2022-12-16T01:47:51;42.43;;;24.40;;
7845;SDS011;3968;51.424;6.788;2022-12-16T01:50:18;42.03;;;24.67;;
7845;SDS011;3968;51.424;6.788;2022-12-16T01:52:45;43.67;;;24.43;;
7845;SDS011;3968;51.424;6.788;2022-12-16T01:55:23;41.80;;;25.83;;
7845;SDS011;3968;51.424;6.788;2022-12-16T01:57:55;43.10;;;25.00;;
7845;SDS011;3968;51.424;6.788;2022-12-16T02:00:22;40.43;;;23.73;;
7845;SDS011;3968;51.424;6.788;2022-12-16T02:02:49;42.83;;;25.57;;
7845;SDS011;3968;51.424;6.788;2022-12-16T02:05:15;42.43;;;25.13;;
7845;SDS011;3968;51.424;6.788;2022-12-16T02:08:01;42.30;;;25.37;;
7845;SDS011;3968;51.424;6.788;2022-12-16T02:10:32;41.40;;;24.53;;
7845;SDS011;3968;51.424;6.788;2022-12-16T02:13:28;44.00;;;24.40;;
7845;SDS011;3968;51.424;6.788;2022-12-16T02:15:55;43.60;;;24.97;;
7845;SDS011;3968;51.424;6.788;2022-12-16T02:34:01;40.83;;;23.27;;
7845;SDS011;3968;51.424;6.788;2022-12-16T02:38:59;41.87;;;25.20;;
7845;SDS011;3968;51.424;6.788;2022-12-16T02:41:40;42.23;;;24.80;;
7845;SDS011;3968;51.424;6.788;2022-12-16T02:44:07;39.83;;;22.43;;
7845;SDS011;3968;51.424;6.788;2022-12-16T02:46:37;40.23;;;23.73;;
7845;SDS011;3968;51.424;6.788;2022-12-16T02:51:39;41.50;;;23.43;;
7845;SDS011;3968;51.424;6.788;2022-12-16T02:54:06;41.77;;;23.77;;
7845;SDS011;3968;51.424;6.788;2022-12-16T02:59:03;41.27;;;24.43;;
7845;SDS011;3968;51.424;6.788;2022-12-16T03:02:20;43.83;;;24.30;;
7845;SDS011;3968;51.424;6.788;2022-12-16T03:06:49;42.17;;;24.27;;
7845;SDS011;3968;51.424;6.788;2022-12-16T03:09:17;40.87;;;24.07;;
7845;SDS011;3968;51.424;6.788;2022-12-16T03:11:44;43.37;;;25.07;;
7845;SDS011;3968;51.424;6.788;2022-12-16T03:14:13;43.87;;;24.23;;
7845;SDS011;3968;51.424;6.788;2022-12-16T03:16:40;43.77;;;25.13;;
7845;SDS011;3968;51.424;6.788;2022-12-16T03:19:06;39.70;;;23.17;;
7845;SDS011;3968;51.424;6.788;2022-12-16T03:21:44;40.43;;;25.23;;
7845;SDS011;3968;51.424;6.788;2022-12-16T03:24:12;49.27;;;26.33;;
7845;SDS011;3968;51.424;6.788;2022-12-16T03:26:43;41.33;;;24.00;;
7845;SDS011;3968;51.424;6.788;2022-12-16T03:29:15;41.03;;;23.80;;
7845;SDS011;3968;51.424;6.788;2022-12-16T03:31:43;42.20;;;24.90;;
7845;SDS011;3968;51.424;6.788;2022-12-16T03:34:15;42.07;;;25.53;;
7845;SDS011;3968;51.424;6.788;2022-12-16T03:36:43;37.77;;;23.43;;
7845;SDS011;3968;51.424;6.788;2022-12-16T03:39:12;40.10;;;23.67;;
7845;SDS011;3968;51.424;6.788;2022-12-16T03:41:39;45.67;;;24.27;;
7845;SDS011;3968;51.424;6.788;2022-12-16T03:44:06;41.77;;;23.30;;
7845;SDS011;3968;51.424;6.788;2022-12-16T03:46:32;43.07;;;25.00;;
7845;SDS011;3968;51.424;6.788;2022-12-16T03:48:58;41.50;;;25.13;;
7845;SDS011;3968;51.424;6.788;2022-12-16T03:51:25;45.20;;;25.30;;
7845;SDS011;3968;51.424;6.788;2022-12-16T03:53:51;44.53;;;24.87;;
7845;SDS011;3968;51.424;6.788;2022-12-16T03:56:17;43.47;;;25.47;;
7845;SDS011;3968;51.424;6.788;2022-12-16T03:58:43;46.27;;;24.00;;
7845;SDS011;3968;51.424;6.788;2022-12-16T04:01:11;44.87;;;26.47;;
7845;SDS011;3968;51.424;6.788;2022-12-16T04:03:37;41.70;;;25.23;;
7845;SDS011;3968;51.424;6.788;2022-12-16T04:06:03;47.77;;;26.23;;
7845;SDS011;3968;51.424;6.788;2022-12-16T04:08:30;41.67;;;24.43;;
7845;SDS011;3968;51.424;6.788;2022-12-16T04:10:56;38.60;;;23.43;;
7845;SDS011;3968;51.424;6.788;2022-12-16T04:13:40;48.60;;;26.60;;
7845;SDS011;3968;51.424;6.788;2022-12-16T04:16:26;42.50;;;25.57;;
7845;SDS011;3968;51.424;6.788;2022-12-16T04:19:14;39.33;;;24.07;;
7845;SDS011;3968;51.424;6.788;2022-12-16T04:22:01;42.37;;;26.40;;
7845;SDS011;3968;51.424;6.788;2022-12-16T04:24:46;42.17;;;25.97;;
7845;SDS011;3968;51.424;6.788;2022-12-16T04:27:12;41.03;;;24.33;;
7845;SDS011;3968;51.424;6.788;2022-12-16T04:29:51;45.53;;;26.37;;
7845;SDS011;3968;51.424;6.788;2022-12-16T04:32:36;40.07;;;24.27;;
7845;SDS011;3968;51.424;6.788;2022-12-16T04:35:21;47.00;;;24.70;;
7845;SDS011;3968;51.424;6.788;2022-12-16T04:38:05;43.97;;;25.50;;
7845;SDS011;3968;51.424;6.788;2022-12-16T04:40:50;45.83;;;25.43;;
7845;SDS011;3968;51.424;6.788;2022-12-16T04:43:34;41.27;;;25.07;;
7845;SDS011;3968;51.424;6.788;2022-12-16T04:46:19;42.03;;;25.37;;
7845;SDS011;3968;51.424;6.788;2022-12-16T04:49:04;41.10;;;25.70;;
7845;SDS011;3968;51.424;6.788;2022-12-16T04:51:48;44.07;;;24.87;;
7845;SDS011;3968;51.424;6.788;2022-12-16T04:54:33;47.87;;;27.53;;
7845;SDS011;3968;51.424;6.788;2022-12-16T04:57:17;51.40;;;27.37;;
7845;SDS011;3968;51.424;6.788;2022-12-16T05:00:02;44.67;;;25.93;;
7845;SDS011;3968;51.424;6.788;2022-12-16T05:02:48;45.73;;;26.57;;
7845;SDS011;3968;51.424;6.788;2022-12-16T05:05:33;47.90;;;27.27;;
7845;SDS011;3968;51.424;6.788;2022-12-16T05:08:17;46.10;;;26.67;;
7845;SDS011;3968;51.424;6.788;2022-12-16T05:11:02;45.83;;;26.90;;
7845;SDS011;3968;51.424;6.788;2022-12-16T05:13:46;47.90;;;26.63;;
7845;SDS011;3968;51.424;6.788;2022-12-16T05:16:31;46.03;;;25.40;;
7845;SDS011;3968;51.424;6.788;2022-12-16T05:19:15;46.87;;;25.27;;
7845;SDS011;3968;51.424;6.788;2022-12-16T05:22:00;41.40;;;25.20;;
7845;SDS011;3968;51.424;6.788;2022-12-16T05:24:45;43.90;;;26.20;;
7845;SDS011;3968;51.424;6.788;2022-12-16T05:27:29;47.20;;;27.50;;
7845;SDS011;3968;51.424;6.788;2022-12-16T05:30:14;45.27;;;26.53;;
7845;SDS011;3968;51.424;6.788;2022-12-16T05:32:59;49.60;;;25.87;;
7845;SDS011;3968;51.424;6.788;2022-12-16T05:35:43;42.70;;;25.93;;
7845;SDS011;3968;51.424;6.788;2022-12-16T05:38:28;44.90;;;26.50;;
7845;SDS011;3968;51.424;6.788;2022-12-16T05:41:12;47.40;;;26.37;;
7845;SDS011;3968;51.424;6.788;2022-12-16T05:43:57;44.50;;;25.40;;
7845;SDS011;3968;51.424;6.788;2022-12-16T05:46:41;45.30;;;25.77;;
7845;SDS011;3968;51.424;6.788;2022-12-16T05:49:26;45.07;;;26.47;;
7845;SDS011;3968;51.424;6.788;2022-12-16T05:52:11;38.07;;;24.97;;
7845;SDS011;3968;51.424;6.788;2022-12-16T05:54:55;46.17;;;25.97;;
7845;SDS011;3968;51.424;6.788;2022-12-16T05:57:40;47.43;;;25.73;;
7845;SDS011;3968;51.424;6.788;2022-12-16T06:00:24;42.63;;;25.43;;
7845;SDS011;3968;51.424;6.788;2022-12-16T06:03:09;43.53;;;26.20;;
7845;SDS011;3968;51.424;6.788;2022-12-16T06:05:53;48.37;;;27.10;;
7845;SDS011;3968;51.424;6.788;2022-12-16T06:08:38;48.73;;;27.30;;
7845;SDS011;3968;51.424;6.788;2022-12-16T06:11:22;42.87;;;25.90;;
7845;SDS011;3968;51.424;6.788;2022-12-16T06:14:07;47.20;;;25.93;;
7845;SDS011;3968;51.424;6.788;2022-12-16T06:16:52;41.53;;;25.57;;
7845;SDS011;3968;51.424;6.788;2022-12-16T06:19:36;45.87;;;25.97;;
7845;SDS011;3968;51.424;6.788;2022-12-16T06:22:21;43.13;;;25.10;;
7845;SDS011;3968;51.424;6.788;2022-12-16T06:25:05;49.20;;;27.63;;
7845;SDS011;3968;51.424;6.788;2022-12-16T06:27:51;43.60;;;26.60;;
7845;SDS011;3968;51.424;6.788;2022-12-16T06:30:36;43.63;;;26.50;;
7845;SDS011;3968;51.424;6.788;2022-12-16T06:33:21;43.87;;;25.97;;
7845;SDS011;3968;51.424;6.788;2022-12-16T06:36:05;46.30;;;26.97;;
7845;SDS011;3968;51.424;6.788;2022-12-16T06:38:50;44.67;;;25.37;;
7845;SDS011;3968;51.424;6.788;2022-12-16T06:41:35;45.97;;;25.53;;
7845;SDS011;3968;51.424;6.788;2022-12-16T06:44:19;50.33;;;28.33;;
7845;SDS011;3968;51.424;6.788;2022-12-16T06:47:04;52.40;;;27.50;;
7845;SDS011;3968;51.424;6.788;2022-12-16T06:49:48;43.37;;;26.87;;
7845;SDS011;3968;51.424;6.788;2022-12-16T06:52:33;45.00;;;26.07;;
7845;SDS011;3968;51.424;6.788;2022-12-16T06:55:17;43.60;;;26.03;;
7845;SDS011;3968;51.424;6.788;2022-12-16T06:58:02;50.60;;;26.70;;
7845;SDS011;3968;51.424;6.788;2022-12-16T07:00:47;46.80;;;27.00;;
7845;SDS011;3968;51.424;6.788;2022-12-16T07:03:31;48.97;;;26.67;;
7845;SDS011;3968;51.424;6.788;2022-12-16T07:06:16;48.43;;;26.30;;
7845;SDS011;3968;51.424;6.788;2022-12-16T07:09:00;47.70;;;25.90;;
7845;SDS011;3968;51.424;6.788;2022-12-16T07:11:45;41.30;;;25.07;;
7845;SDS011;3968;51.424;6.788;2022-12-16T07:14:30;42.67;;;25.50;;
7845;SDS011;3968;51.424;6.788;2022-12-16T07:17:14;46.30;;;25.47;;
7845;SDS011;3968;51.424;6.788;2022-12-16T07:19:59;47.30;;;26.60;;
7845;SDS011;3968;51.424;6.788;2022-12-16T07:22:44;50.80;;;26.57;;
7845;SDS011;3968;51.424;6.788;2022-12-16T07:25:28;43.33;;;25.77;;
7845;SDS011;3968;51.424;6.788;2022-12-16T07:28:13;48.77;;;27.20;;
7845;SDS011;3968;51.424;6.788;2022-12-16T07:30:58;44.27;;;24.77;;
7845;SDS011;3968;51.424;6.788;2022-12-16T07:33:42;43.23;;;26.60;;
7845;SDS011;3968;51.424;6.788;2022-12-16T07:36:26;42.53;;;26.33;;
7845;SDS011;3968;51.424;6.788;2022-12-16T07:39:11;39.50;;;24.93;;
7845;SDS011;3968;51.424;6.788;2022-12-16T07:41:55;44.60;;;24.70;;
7845;SDS011;3968;51.424;6.788;2022-12-16T07:44:40;53.23;;;26.27;;
7845;SDS011;3968;51.424;6.788;2022-12-16T07:47:25;45.00;;;26.10;;
7845;SDS011;3968;51.424;6.788;2022-12-16T07:50:09;42.00;;;24.80;;
7845;SDS011;3968;51.424;6.788;2022-12-16T07:52:54;48.87;;;27.63;;
7845;SDS011;3968;51.424;6.788;2022-12-16T07:55:39;54.13;;;27.00;;
7845;SDS011;3968;51.424;6.788;2022-12-16T07:58:24;49.90;;;27.10;;
7845;SDS011;3968;51.424;6.788;2022-12-16T08:01:08;48.67;;;27.37;;
7845;SDS011;3968;51.424;6.788;2022-12-16T08:03:53;48.30;;;27.00;;
7845;SDS011;3968;51.424;6.788;2022-12-16T08:06:37;46.57;;;26.67;;
7845;SDS011;3968;51.424;6.788;2022-12-16T08:09:22;47.47;;;27.77;;
7845;SDS011;3968;51.424;6.788;2022-12-16T08:12:07;42.23;;;25.80;;
7845;SDS011;3968;51.424;6.788;2022-12-16T08:14:51;48.33;;;25.67;;
7845;SDS011;3968;51.424;6.788;2022-12-16T08:17:36;45.83;;;27.07;;
7845;SDS011;3968;51.424;6.788;2022-12-16T08:20:20;46.47;;;26.37;;
7845;SDS011;3968;51.424;6.788;2022-12-16T08:23:05;43.37;;;26.10;;
7845;SDS011;3968;51.424;6.788;2022-12-16T08:25:50;47.20;;;27.60;;
7845;SDS011;3968;51.424;6.788;2022-12-16T08:28:51;45.97;;;26.23;;
7845;SDS011;3968;51.424;6.788;2022-12-16T08:31:36;50.50;;;27.73;;
7845;SDS011;3968;51.424;6.788;2022-12-16T08:34:21;50.57;;;26.63;;
7845;SDS011;3968;51.424;6.788;2022-12-16T08:37:05;45.60;;;26.17;;
7845;SDS011;3968;51.424;6.788;2022-12-16T08:39:50;48.13;;;26.13;;
7845;SDS011;3968;51.424;6.788;2022-12-16T08:42:35;43.93;;;25.70;;
7845;SDS011;3968;51.424;6.788;2022-12-16T08:45:20;46.90;;;26.27;;
7845;SDS011;3968;51.424;6.788;2022-12-16T08:48:04;41.40;;;25.97;;
7845;SDS011;3968;51.424;6.788;2022-12-16T08:50:49;45.60;;;25.10;;
7845;SDS011;3968;51.424;6.788;2022-12-16T08:53:34;44.57;;;26.87;;
7845;SDS011;3968;51.424;6.788;2022-12-16T08:56:19;42.73;;;25.93;;
7845;SDS011;3968;51.424;6.788;2022-12-16T08:59:04;42.87;;;25.03;;
7845;SDS011;3968;51.424;6.788;2022-12-16T09:01:48;44.60;;;25.57;;
7845;SDS011;3968;51.424;6.788;2022-12-16T09:04:33;49.13;;;26.37;;
7845;SDS011;3968;51.424;6.788;2022-12-16T09:07:17;43.73;;;26.77;;
7845;SDS011;3968;51.424;6.788;2022-12-16T09:10:02;49.93;;;27.13;;
7845;SDS011;3968;51.424;6.788;2022-12-16T09:12:47;43.07;;;26.33;;
7845;SDS011;3968;51.424;6.788;2022-12-16T09:15:31;45.30;;;27.30;;
7845;SDS011;3968;51.424;6.788;2022-12-16T09:18:16;49.40;;;26.77;;
7845;SDS011;3968;51.424;6.788;2022-12-16T09:21:01;54.03;;;28.77;;
7845;SDS011;3968;51.424;6.788;2022-12-16T09:23:45;58.23;;;30.20;;
7845;SDS011;3968;51.424;6.788;2022-12-16T09:26:30;56.27;;;29.87;;
7845;SDS011;3968;51.424;6.788;2022-12-16T09:29:14;61.67;;;30.17;;
7845;SDS011;3968;51.424;6.788;2022-12-16T09:31:59;54.93;;;29.67;;
7845;SDS011;3968;51.424;6.788;2022-12-16T09:34:44;53.57;;;29.63;;
7845;SDS011;3968;51.424;6.788;2022-12-16T09:37:28;54.27;;;28.30;;
7845;SDS011;3968;51.424;6.788;2022-12-16T09:40:13;53.50;;;30.37;;
7845;SDS011;3968;51.424;6.788;2022-12-16T09:43:01;51.20;;;28.70;;
7845;SDS011;3968;51.424;6.788;2022-12-16T09:51:33;47.00;;;27.30;;
7845;SDS011;3968;51.424;6.788;2022-12-16T09:54:19;44.83;;;27.07;;
7845;SDS011;3968;51.424;6.788;2022-12-16T09:57:07;45.47;;;27.73;;
7845;SDS011;3968;51.424;6.788;2022-12-16T09:59:53;48.47;;;28.90;;
7845;SDS011;3968;51.424;6.788;2022-12-16T10:02:39;52.47;;;29.13;;
7845;SDS011;3968;51.424;6.788;2022-12-16T10:05:35;49.97;;;28.57;;
7845;SDS011;3968;51.424;6.788;2022-12-16T10:08:58;50.63;;;28.53;;
7845;SDS011;3968;51.424;6.788;2022-12-16T10:14:43;46.20;;;26.03;;
7845;SDS011;3968;51.424;6.788;2022-12-16T10:17:30;46.13;;;28.37;;
7845;SDS011;3968;51.424;6.788;2022-12-16T10:20:21;46.73;;;27.13;;
7845;SDS011;3968;51.424;6.788;2022-12-16T10:23:10;52.87;;;28.10;;
7845;SDS011;3968;51.424;6.788;2022-12-16T10:26:05;50.20;;;28.03;;
7845;SDS011;3968;51.424;6.788;2022-12-16T10:28:53;51.40;;;30.03;;
7845;SDS011;3968;51.424;6.788;2022-12-16T10:31:39;50.70;;;28.40;;
7845;SDS011;3968;51.424;6.788;2022-12-16T10:34:28;49.07;;;28.50;;
7845;SDS011;3968;51.424;6.788;2022-12-16T10:37:18;59.17;;;30.53;;
7845;SDS011;3968;51.424;6.788;2022-12-16T10:40:04;56.03;;;29.47;;
7845;SDS011;3968;51.424;6.788;2022-12-16T10:42:53;50.90;;;29.00;;
7845;SDS011;3968;51.424;6.788;2022-12-16T10:45:41;56.80;;;31.03;;
7845;SDS011;3968;51.424;6.788;2022-12-16T10:48:28;60.40;;;32.43;;
7845;SDS011;3968;51.424;6.788;2022-12-16T10:51:14;61.30;;;30.30;;
7845;SDS011;3968;51.424;6.788;2022-12-16T10:54:00;67.17;;;30.93;;
7845;SDS011;3968;51.424;6.788;2022-12-16T10:56:57;58.90;;;31.07;;
7845;SDS011;3968;51.424;6.788;2022-12-16T10:59:43;59.97;;;32.23;;
7845;SDS011;3968;51.424;6.788;2022-12-16T11:02:28;60.83;;;33.83;;
7845;SDS011;3968;51.424;6.788;2022-12-16T11:05:28;69.90;;;33.33;;
7845;SDS011;3968;51.424;6.788;2022-12-16T11:11:12;73.93;;;35.20;;
7845;SDS011;3968;51.424;6.788;2022-12-16T11:17:14;71.13;;;33.87;;
7845;SDS011;3968;51.424;6.788;2022-12-16T11:20:07;64.57;;;32.23;;
7845;SDS011;3968;51.424;6.788;2022-12-16T11:23:07;61.97;;;31.97;;
7845;SDS011;3968;51.424;6.788;2022-12-16T11:26:02;63.17;;;32.43;;
7845;SDS011;3968;51.424;6.788;2022-12-16T11:28:59;64.57;;;33.43;;
7845;SDS011;3968;51.424;6.788;2022-12-16T11:31:46;70.33;;;34.67;;
7845;SDS011;3968;51.424;6.788;2022-12-16T11:34:32;109.23;;;49.13;;
7845;SDS011;3968;51.424;6.788;2022-12-16T11:37:17;71.47;;;35.80;;
7845;SDS011;3968;51.424;6.788;2022-12-16T11:40:03;64.57;;;33.33;;
7845;SDS011;3968;51.424;6.788;2022-12-16T11:43:02;69.07;;;38.43;;
7845;SDS011;3968;51.424;6.788;2022-12-16T11:45:48;62.10;;;34.23;;
7845;SDS011;3968;51.424;6.788;2022-12-16T11:48:39;60.03;;;33.03;;
7845;SDS011;3968;51.424;6.788;2022-12-16T11:51:25;72.63;;;35.77;;
7845;SDS011;3968;51.424;6.788;2022-12-16T11:54:22;64.20;;;34.27;;
7845;SDS011;3968;51.424;6.788;2022-12-16T11:57:18;63.07;;;35.10;;
7845;SDS011;3968;51.424;6.788;2022-12-16T12:00:05;59.93;;;34.57;;
7845;SDS011;3968;51.424;6.788;2022-12-16T12:05:40;66.07;;;37.03;;
7845;SDS011;3968;51.424;6.788;2022-12-16T12:08:32;65.80;;;35.27;;
7845;SDS011;3968;51.424;6.788;2022-12-16T12:11:23;62.53;;;35.07;;
7845;SDS011;3968;51.424;6.788;2022-12-16T12:14:14;65.00;;;35.17;;
7845;SDS011;3968;51.424;6.788;2022-12-16T12:17:04;68.27;;;36.13;;
7845;SDS011;3968;51.424;6.788;2022-12-16T12:22:36;64.90;;;36.53;;
7845;SDS011;3968;51.424;6.788;2022-12-16T12:25:23;67.80;;;36.50;;
7845;SDS011;3968;51.424;6.788;2022-12-16T12:30:55;77.50;;;40.27;;
7845;SDS011;3968;51.424;6.788;2022-12-16T12:33:51;82.10;;;43.07;;
7845;SDS011;3968;51.424;6.788;2022-12-16T12:36:50;92.10;;;45.97;;
7845;SDS011;3968;51.424;6.788;2022-12-16T12:39:43;113.23;;;52.20;;
7845;SDS011;3968;51.424;6.788;2022-12-16T12:42:36;96.27;;;47.47;;
7845;SDS011;3968;51.424;6.788;2022-12-16T12:48:40;95.17;;;43.93;;
7845;SDS011;3968;51.424;6.788;2022-12-16T12:57:14;95.03;;;44.40;;
7845;SDS011;3968;51.424;6.788;2022-12-16T13:00:05;94.30;;;44.20;;
7845;SDS011;3968;51.424;6.788;2022-12-16T13:05:41;103.30;;;45.77;;
7845;SDS011;3968;51.424;6.788;2022-12-16T13:11:14;105.10;;;45.50;;
7845;SDS011;3968;51.424;6.788;2022-12-16T13:13:58;97.43;;;46.33;;
7845;SDS011;3968;51.424;6.788;2022-12-16T13:22:28;99.33;;;43.63;;
7845;SDS011;3968;51.424;6.788;2022-12-16T13:28:19;97.00;;;45.53;;
7845;SDS011;3968;51.424;6.788;2022-12-16T13:31:04;97.07;;;46.40;;
7845;SDS011;3968;51.424;6.788;2022-12-16T13:33:50;96.83;;;44.03;;
7845;SDS011;3968;51.424;6.788;2022-12-16T13:36:34;100.07;;;45.03;;
7845;SDS011;3968;51.424;6.788;2022-12-16T13:42:04;96.03;;;45.53;;
7845;SDS011;3968;51.424;6.788;2022-12-16T13:50:40;103.83;;;46.47;;
7845;SDS011;3968;51.424;6.788;2022-12-16T13:53:45;97.77;;;45.07;;
7845;SDS011;3968;51.424;6.788;2022-12-16T13:56:35;103.33;;;46.50;;
7845;SDS011;3968;51.424;6.788;2022-12-16T13:59:21;104.20;;;45.80;;
7845;SDS011;3968;51.424;6.788;2022-12-16T14:02:49;102.97;;;45.27;;
7845;SDS011;3968;51.424;6.788;2022-12-16T14:05:18;104.63;;;48.43;;
7845;SDS011;3968;51.424;6.788;2022-12-16T14:08:05;112.03;;;48.37;;
7845;SDS011;3968;51.424;6.788;2022-12-16T14:10:56;116.97;;;50.23;;
7845;SDS011;3968;51.424;6.788;2022-12-16T14:13:51;119.17;;;50.20;;
7845;SDS011;3968;51.424;6.788;2022-12-16T14:16:43;123.30;;;50.20;;
7845;SDS011;3968;51.424;6.788;2022-12-16T14:19:32;145.53;;;53.67;;
7845;SDS011;3968;51.424;6.788;2022-12-16T14:25:14;137.67;;;57.63;;
7845;SDS011;3968;51.424;6.788;2022-12-16T14:27:59;130.60;;;50.93;;
7845;SDS011;3968;51.424;6.788;2022-12-16T14:30:44;133.20;;;55.23;;
7845;SDS011;3968;51.424;6.788;2022-12-16T14:33:28;133.63;;;50.97;;
7845;SDS011;3968;51.424;6.788;2022-12-16T14:36:24;127.17;;;51.53;;
7845;SDS011;3968;51.424;6.788;2022-12-16T14:39:10;122.43;;;51.50;;
7845;SDS011;3968;51.424;6.788;2022-12-16T14:41:55;126.13;;;50.53;;
7845;SDS011;3968;51.424;6.788;2022-12-16T14:44:39;124.00;;;50.60;;
7845;SDS011;3968;51.424;6.788;2022-12-16T14:47:27;138.43;;;51.90;;
7845;SDS011;3968;51.424;6.788;2022-12-16T14:50:27;118.63;;;51.23;;
7845;SDS011;3968;51.424;6.788;2022-12-16T14:53:16;143.07;;;51.80;;
7845;SDS011;3968;51.424;6.788;2022-12-16T14:56:17;139.43;;;52.33;;
7845;SDS011;3968;51.424;6.788;2022-12-16T14:59:06;139.40;;;53.30;;
7845;SDS011;3968;51.424;6.788;2022-12-16T15:01:51;122.87;;;51.73;;
7845;SDS011;3968;51.424;6.788;2022-12-16T15:04:37;138.67;;;52.90;;
7845;SDS011;3968;51.424;6.788;2022-12-16T15:07:22;372.93;;;199.07;;
7845;SDS011;3968;51.424;6.788;2022-12-16T15:10:10;660.57;;;404.63;;
7845;SDS011;3968;51.424;6.788;2022-12-16T15:12:56;195.00;;;81.07;;
7845;SDS011;3968;51.424;6.788;2022-12-16T15:15:42;149.63;;;59.97;;
7845;SDS011;3968;51.424;6.788;2022-12-16T15:18:31;157.23;;;62.20;;
7845;SDS011;3968;51.424;6.788;2022-12-16T15:21:17;146.77;;;59.77;;
7845;SDS011;3968;51.424;6.788;2022-12-16T15:24:06;137.73;;;58.97;;
7845;SDS011;3968;51.424;6.788;2022-12-16T15:27:11;149.73;;;58.07;;
7845;SDS011;3968;51.424;6.788;2022-12-16T15:29:55;136.10;;;54.53;;
7845;SDS011;3968;51.424;6.788;2022-12-16T15:32:40;140.23;;;53.40;;
7845;SDS011;3968;51.424;6.788;2022-12-16T15:38:31;138.70;;;53.73;;
7845;SDS011;3968;51.424;6.788;2022-12-16T15:44:10;122.90;;;49.20;;
7845;SDS011;3968;51.424;6.788;2022-12-16T15:46:56;122.50;;;50.40;;
7845;SDS011;3968;51.424;6.788;2022-12-16T15:49:44;123.37;;;49.70;;
7845;SDS011;3968;51.424;6.788;2022-12-16T15:52:43;125.13;;;49.77;;
7845;SDS011;3968;51.424;6.788;2022-12-16T16:01:03;129.93;;;49.37;;
7845;SDS011;3968;51.424;6.788;2022-12-16T16:03:50;121.60;;;48.90;;
7845;SDS011;3968;51.424;6.788;2022-12-16T16:06:51;120.23;;;47.27;;
7845;SDS011;3968;51.424;6.788;2022-12-16T16:09:37;119.80;;;48.03;;
7845;SDS011;3968;51.424;6.788;2022-12-16T16:12:23;130.53;;;48.67;;
7845;SDS011;3968;51.424;6.788;2022-12-16T16:15:12;126.03;;;48.70;;
7845;SDS011;3968;51.424;6.788;2022-12-16T16:17:58;124.13;;;48.53;;
7845;SDS011;3968;51.424;6.788;2022-12-16T16:20:43;118.13;;;46.43;;
7845;SDS011;3968;51.424;6.788;2022-12-16T16:23:27;116.57;;;45.20;;
7845;SDS011;3968;51.424;6.788;2022-12-16T16:26:14;120.60;;;44.50;;
7845;SDS011;3968;51.424;6.788;2022-12-16T16:28:59;119.77;;;49.73;;
7845;SDS011;3968;51.424;6.788;2022-12-16T16:31:44;422.97;;;253.73;;
7845;SDS011;3968;51.424;6.788;2022-12-16T16:34:28;320.03;;;172.47;;
7845;SDS011;3968;51.424;6.788;2022-12-16T16:37:14;168.13;;;74.03;;
7845;SDS011;3968;51.424;6.788;2022-12-16T16:40:00;141.27;;;54.83;;
7845;SDS011;3968;51.424;6.788;2022-12-16T16:42:44;127.03;;;50.90;;
7845;SDS011;3968;51.424;6.788;2022-12-16T16:45:29;106.10;;;46.13;;
7845;SDS011;3968;51.424;6.788;2022-12-16T16:48:14;112.50;;;48.20;;
7845;SDS011;3968;51.424;6.788;2022-12-16T16:51:00;118.63;;;49.40;;
7845;SDS011;3968;51.424;6.788;2022-12-16T16:53:45;118.17;;;47.37;;
7845;SDS011;3968;51.424;6.788;2022-12-16T16:56:30;125.53;;;50.23;;
7845;SDS011;3968;51.424;6.788;2022-12-16T16:59:16;118.80;;;50.27;;
7845;SDS011;3968;51.424;6.788;2022-12-16T17:02:01;131.67;;;49.67;;
7845;SDS011;3968;51.424;6.788;2022-12-16T17:04:46;134.63;;;48.83;;
7845;SDS011;3968;51.424;6.788;2022-12-16T17:07:30;132.53;;;50.60;;
7845;SDS011;3968;51.424;6.788;2022-12-16T17:10:15;132.97;;;51.53;;
7845;SDS011;3968;51.424;6.788;2022-12-16T17:12:59;130.13;;;49.20;;
7845;SDS011;3968;51.424;6.788;2022-12-16T17:15:44;128.57;;;47.40;;
7845;SDS011;3968;51.424;6.788;2022-12-16T17:18:28;124.87;;;50.00;;
7845;SDS011;3968;51.424;6.788;2022-12-16T17:21:13;111.43;;;46.30;;
7845;SDS011;3968;51.424;6.788;2022-12-16T17:23:57;118.97;;;46.97;;
7845;SDS011;3968;51.424;6.788;2022-12-16T17:26:42;112.07;;;46.93;;
7845;SDS011;3968;51.424;6.788;2022-12-16T17:29:27;115.70;;;46.67;;
7845;SDS011;3968;51.424;6.788;2022-12-16T17:32:12;106.80;;;42.63;;
7845;SDS011;3968;51.424;6.788;2022-12-16T17:34:57;113.23;;;43.80;;
7845;SDS011;3968;51.424;6.788;2022-12-16T17:37:42;98.07;;;40.30;;
7845;SDS011;3968;51.424;6.788;2022-12-16T17:40:27;102.80;;;43.43;;
7845;SDS011;3968;51.424;6.788;2022-12-16T17:43:12;100.30;;;42.30;;
7845;SDS011;3968;51.424;6.788;2022-12-16T17:46:01;119.30;;;44.03;;
7845;SDS011;3968;51.424;6.788;2022-12-16T17:48:52;107.87;;;43.23;;
7845;SDS011;3968;51.424;6.788;2022-12-16T17:51:37;127.70;;;49.10;;